Time;durP1;ratioP1;P1;durP2;ratioP2;P2;SDS_P1;SDS_P2;PMS_P1;PMS_P2;Temp;Humidity;BMP_temperature;BMP_pressure;BME280_temperature;BME280_humidity;BME280_pressure;Samples;Min_cycle;Max_cycle;Signal;HPM_P1;HPM_P2
2021/12/30 00:00:52;;;;;;;1.20;0.77;;;;;;;;;;5033316;28;20770;-65
2021/12/30 00:03:18;;;;;;;1.80;0.77;;;;;;;;;;5033810;28;20469;-65
2021/12/30 00:05:44;;;;;;;1.40;0.90;;;;;;;;;;5033962;28;20398;-66
2021/12/30 00:08:10;;;;;;;1.37;0.80;;;;;;;;;;5033630;28;20401;-67
2021/12/30 00:10:37;;;;;;;1.67;0.90;;;;;;;;;;5034099;28;20802;-65
2021/12/30 00:13:03;;;;;;;1.40;0.90;;;;;;;;;;5033668;28;20458;-66
2021/12/30 00:15:29;;;;;;;1.40;0.87;;;;;;;;;;5033906;28;20394;-66
2021/12/30 00:17:55;;;;;;;1.60;0.93;;;;;;;;;;5033575;28;20793;-66
2021/12/30 00:20:21;;;;;;;3.10;0.90;;;;;;;;;;5033633;28;20406;-65
2021/12/30 00:22:47;;;;;;;1.30;0.90;;;;;;;;;;5033764;28;20912;-65
2021/12/30 00:25:15;;;;;;;1.83;1.23;;;;;;;;;;5033475;28;20398;-64
2021/12/30 00:27:41;;;;;;;1.30;0.87;;;;;;;;;;5033761;28;20425;-65
2021/12/30 00:30:08;;;;;;;2.10;1.43;;;;;;;;;;5033529;28;20451;-66
2021/12/30 00:32:34;;;;;;;1.93;0.90;;;;;;;;;;5033558;28;20978;-67
2021/12/30 00:35:01;;;;;;;1.30;0.90;;;;;;;;;;5033152;28;20409;-67
2021/12/30 00:37:27;;;;;;;1.40;0.80;;;;;;;;;;5033361;28;20395;-67
2021/12/30 00:39:53;;;;;;;1.20;0.70;;;;;;;;;;5033220;28;20398;-66
2021/12/30 00:42:19;;;;;;;1.20;0.73;;;;;;;;;;5033116;28;20415;-66
2021/12/30 00:44:45;;;;;;;1.30;0.80;;;;;;;;;;5033270;28;20421;-67
2021/12/30 00:47:11;;;;;;;1.60;0.80;;;;;;;;;;5033216;28;20903;-67
2021/12/30 00:49:37;;;;;;;1.30;0.80;;;;;;;;;;5033077;28;20414;-67
2021/12/30 00:52:03;;;;;;;1.87;0.80;;;;;;;;;;5033493;28;20549;-66
2021/12/30 00:54:29;;;;;;;1.60;1.00;;;;;;;;;;5033417;28;20744;-66
2021/12/30 00:56:55;;;;;;;1.70;0.97;;;;;;;;;;5033124;28;20914;-67
2021/12/30 00:59:21;;;;;;;1.50;0.70;;;;;;;;;;5033215;28;20406;-67
2021/12/30 01:01:47;;;;;;;1.50;0.80;;;;;;;;;;5033069;28;20399;-67
2021/12/30 01:04:14;;;;;;;1.30;0.70;;;;;;;;;;5033144;28;20405;-66
2021/12/30 01:06:40;;;;;;;1.30;0.80;;;;;;;;;;5032888;28;20900;-66
2021/12/30 01:09:06;;;;;;;1.20;0.80;;;;;;;;;;5033054;28;20402;-67
2021/12/30 01:11:33;;;;;;;1.30;0.77;;;;;;;;;;5035349;28;20817;-68
2021/12/30 01:14:10;;;;;;;1.67;0.90;;;;;;;;;;5037220;28;20430;-66
2021/12/30 01:16:42;;;;;;;1.40;0.90;;;;;;;;;;5036927;28;20855;-65
2021/12/30 01:21:40;;;;;;;1.50;1.00;;;;;;;;;;5037112;28;20394;-65
2021/12/30 01:24:06;;;;;;;1.47;0.90;;;;;;;;;;5036669;28;20433;-65
2021/12/30 01:26:32;;;;;;;1.20;0.73;;;;;;;;;;5036619;28;20406;-66
2021/12/30 01:28:59;;;;;;;1.60;1.00;;;;;;;;;;5036461;28;20434;-66
2021/12/30 01:31:25;;;;;;;1.30;0.80;;;;;;;;;;5036818;28;20881;-66
2021/12/30 01:33:51;;;;;;;1.20;0.73;;;;;;;;;;5036660;28;20926;-65
2021/12/30 01:36:17;;;;;;;1.40;0.80;;;;;;;;;;5036803;28;20406;-65
2021/12/30 01:38:45;;;;;;;1.30;0.80;;;;;;;;;;5036801;28;20770;-65
2021/12/30 01:41:11;;;;;;;1.50;0.70;;;;;;;;;;5036904;28;20398;-65
2021/12/30 01:43:38;;;;;;;2.03;0.90;;;;;;;;;;5036335;28;20560;-66
2021/12/30 01:46:06;;;;;;;1.20;0.73;;;;;;;;;;5036619;28;20456;-66
2021/12/30 01:48:32;;;;;;;1.20;0.70;;;;;;;;;;5036264;28;20398;-66
2021/12/30 01:50:58;;;;;;;1.30;0.70;;;;;;;;;;5036187;28;20402;-66
2021/12/30 01:53:24;;;;;;;1.20;0.70;;;;;;;;;;5036739;28;20818;-66
2021/12/30 01:55:50;;;;;;;1.30;0.80;;;;;;;;;;5036130;28;20391;-66
2021/12/30 01:58:17;;;;;;;1.70;0.90;;;;;;;;;;5036137;28;20426;-65
2021/12/30 02:00:45;;;;;;;1.80;1.27;;;;;;;;;;5036108;28;20875;-65
2021/12/30 02:03:11;;;;;;;1.63;1.03;;;;;;;;;;5036022;28;20517;-65
2021/12/30 02:05:38;;;;;;;1.30;0.80;;;;;;;;;;5035933;28;20500;-65
2021/12/30 02:08:08;;;;;;;1.30;0.70;;;;;;;;;;5036233;28;20410;-65
2021/12/30 02:10:35;;;;;;;2.37;0.80;;;;;;;;;;5036580;28;20399;-65
2021/12/30 02:13:01;;;;;;;1.30;0.80;;;;;;;;;;5035788;28;20599;-65
2021/12/30 02:15:27;;;;;;;1.20;0.73;;;;;;;;;;5035901;28;20441;-65
2021/12/30 02:17:54;;;;;;;1.40;0.77;;;;;;;;;;5035853;28;20407;-65
2021/12/30 02:20:44;;;;;;;1.30;0.80;;;;;;;;;;5035668;28;20407;-64
2021/12/30 02:23:11;;;;;;;1.30;0.70;;;;;;;;;;5035352;28;20782;-66
2021/12/30 02:25:37;;;;;;;1.30;0.80;;;;;;;;;;5035542;28;20459;-66
2021/12/30 02:28:07;;;;;;;1.40;0.90;;;;;;;;;;5035581;28;20430;-65
2021/12/30 02:30:34;;;;;;;1.20;0.80;;;;;;;;;;5035845;28;20735;-65
2021/12/30 02:33:00;;;;;;;2.33;0.80;;;;;;;;;;5035422;28;20531;-66
2021/12/30 02:35:26;;;;;;;1.70;0.70;;;;;;;;;;5036140;28;20395;-66
2021/12/30 02:37:52;;;;;;;1.40;0.90;;;;;;;;;;5035666;28;20770;-65
2021/12/30 02:40:33;;;;;;;1.30;0.80;;;;;;;;;;5035464;28;20399;-65
2021/12/30 02:43:00;;;;;;;1.40;0.80;;;;;;;;;;5035170;28;20443;-64
2021/12/30 02:45:26;;;;;;;1.47;0.83;;;;;;;;;;5035184;28;20409;-64
2021/12/30 02:47:52;;;;;;;2.13;0.80;;;;;;;;;;5024763;28;20805;-65
2021/12/30 02:50:18;;;;;;;1.20;0.77;;;;;;;;;;5021851;28;20443;-64
2021/12/30 02:52:44;;;;;;;1.40;0.80;;;;;;;;;;5015231;28;20462;-64
2021/12/30 02:55:11;;;;;;;1.50;0.80;;;;;;;;;;5015458;28;20403;-64
2021/12/30 02:57:37;;;;;;;2.37;1.00;;;;;;;;;;5015193;28;20442;-64
2021/12/30 03:00:04;;;;;;;1.40;0.90;;;;;;;;;;5015449;28;20400;-64
2021/12/30 03:02:30;;;;;;;1.30;0.90;;;;;;;;;;5015316;28;20747;-65
2021/12/30 03:04:56;;;;;;;2.47;0.90;;;;;;;;;;5015299;28;20490;-65
2021/12/30 03:07:22;;;;;;;1.40;0.90;;;;;;;;;;5015339;28;20411;-65
2021/12/30 03:09:48;;;;;;;1.30;0.90;;;;;;;;;;5015197;28;20403;-66
2021/12/30 03:12:15;;;;;;;1.40;0.80;;;;;;;;;;5014803;28;20976;-65
2021/12/30 03:14:42;;;;;;;2.50;0.80;;;;;;;;;;5014854;28;20406;-65
2021/12/30 03:17:08;;;;;;;1.30;0.90;;;;;;;;;;5015081;28;20403;-66
2021/12/30 03:19:35;;;;;;;1.40;0.80;;;;;;;;;;5015405;28;20416;-65
2021/12/30 03:22:01;;;;;;;1.83;0.90;;;;;;;;;;5015040;28;20431;-65
2021/12/30 03:24:27;;;;;;;1.80;0.90;;;;;;;;;;5014721;28;20407;-65
2021/12/30 03:26:53;;;;;;;1.93;1.03;;;;;;;;;;5014672;28;20407;-65
2021/12/30 03:29:19;;;;;;;7.80;1.00;;;;;;;;;;5014570;28;20434;-66
2021/12/30 03:31:46;;;;;;;1.83;1.10;;;;;;;;;;5014649;28;20451;-66
2021/12/30 03:34:12;;;;;;;1.50;1.00;;;;;;;;;;5012430;28;20408;-65
2021/12/30 03:36:38;;;;;;;1.40;1.07;;;;;;;;;;5014845;28;20399;-65
2021/12/30 03:39:05;;;;;;;1.50;1.00;;;;;;;;;;5014538;28;20415;-66
2021/12/30 03:41:31;;;;;;;1.30;1.00;;;;;;;;;;5014663;28;20403;-66
2021/12/30 03:44:00;;;;;;;1.30;0.90;;;;;;;;;;5014295;28;20562;-66
2021/12/30 03:46:26;;;;;;;1.60;1.10;;;;;;;;;;5014401;28;20491;-66
2021/12/30 03:48:52;;;;;;;1.40;1.10;;;;;;;;;;5014354;28;20931;-67
2021/12/30 03:51:24;;;;;;;1.70;1.10;;;;;;;;;;5014442;28;20920;-66
2021/12/30 03:53:52;;;;;;;1.80;1.20;;;;;;;;;;5014421;28;20426;-66
2021/12/30 03:56:20;;;;;;;2.33;1.40;;;;;;;;;;5014155;28;20404;-66
2021/12/30 03:58:47;;;;;;;1.90;1.10;;;;;;;;;;5014115;28;20421;-66
2021/12/30 04:01:14;;;;;;;2.00;1.20;;;;;;;;;;5014070;28;20800;-66
2021/12/30 04:03:41;;;;;;;1.37;1.10;;;;;;;;;;5014340;28;20810;-66
2021/12/30 04:06:07;;;;;;;2.20;1.30;;;;;;;;;;5014286;28;20399;-65
2021/12/30 04:08:33;;;;;;;1.50;1.10;;;;;;;;;;5014050;28;20462;-66
2021/12/30 04:10:59;;;;;;;1.97;0.90;;;;;;;;;;5013823;28;20404;-66
2021/12/30 04:13:26;;;;;;;1.53;1.13;;;;;;;;;;5014008;28;20936;-66
2021/12/30 04:15:52;;;;;;;1.27;0.80;;;;;;;;;;5013857;28;20812;-66
2021/12/30 04:18:18;;;;;;;1.30;0.80;;;;;;;;;;5016003;28;20418;-66
2021/12/30 04:20:46;;;;;;;1.80;1.07;;;;;;;;;;5022311;28;20499;-66
2021/12/30 04:23:12;;;;;;;1.50;1.00;;;;;;;;;;5013658;28;20787;-66
2021/12/30 04:25:38;;;;;;;1.73;1.00;;;;;;;;;;5013772;28;20410;-67
2021/12/30 04:28:04;;;;;;;1.50;0.90;;;;;;;;;;5013681;28;20435;-66
2021/12/30 04:30:30;;;;;;;1.43;1.00;;;;;;;;;;5013815;28;20403;-66
2021/12/30 04:32:56;;;;;;;1.70;0.93;;;;;;;;;;5013444;28;20455;-66
2021/12/30 04:35:23;;;;;;;2.77;1.27;;;;;;;;;;5013848;28;20395;-67
2021/12/30 04:37:49;;;;;;;4.40;1.00;;;;;;;;;;5013537;28;20428;-66
2021/12/30 04:40:15;;;;;;;1.40;0.90;;;;;;;;;;5013497;28;20395;-66
2021/12/30 04:42:42;;;;;;;1.43;1.20;;;;;;;;;;5013596;28;20925;-66
2021/12/30 04:45:09;;;;;;;1.60;1.07;;;;;;;;;;5011931;28;20407;-66
2021/12/30 04:47:35;;;;;;;1.70;1.00;;;;;;;;;;5014156;28;20411;-66
2021/12/30 04:50:01;;;;;;;4.47;1.10;;;;;;;;;;5013385;28;20896;-66
2021/12/30 04:52:27;;;;;;;2.00;1.10;;;;;;;;;;5013261;28;20455;-66
2021/12/30 04:54:53;;;;;;;1.40;1.00;;;;;;;;;;5013325;28;20403;-65
2021/12/30 04:57:20;;;;;;;3.07;1.30;;;;;;;;;;5013228;28;20387;-66
2021/12/30 04:59:46;;;;;;;1.33;0.80;;;;;;;;;;5013599;28;20414;-66
2021/12/30 05:02:12;;;;;;;2.97;0.97;;;;;;;;;;5013283;28;20455;-66
2021/12/30 05:04:38;;;;;;;1.50;0.90;;;;;;;;;;5022826;28;20425;-65
2021/12/30 05:07:05;;;;;;;1.43;1.00;;;;;;;;;;5016782;28;20943;-65
2021/12/30 05:09:31;;;;;;;1.70;0.90;;;;;;;;;;5013442;28;20406;-66
2021/12/30 05:11:58;;;;;;;1.40;0.90;;;;;;;;;;5011952;28;20447;-66
2021/12/30 05:14:24;;;;;;;1.50;1.00;;;;;;;;;;5013574;28;20741;-66
2021/12/30 05:16:51;;;;;;;1.93;1.07;;;;;;;;;;5013208;28;20820;-65
2021/12/30 05:19:18;;;;;;;1.40;1.00;;;;;;;;;;5013505;28;20478;-66
2021/12/30 05:21:44;;;;;;;2.63;0.80;;;;;;;;;;5013427;28;20758;-65
2021/12/30 05:24:10;;;;;;;1.67;0.80;;;;;;;;;;5013219;28;20761;-65
2021/12/30 05:26:36;;;;;;;2.70;1.00;;;;;;;;;;5012977;28;20404;-66
2021/12/30 05:29:03;;;;;;;1.40;0.97;;;;;;;;;;5012899;28;20430;-66
2021/12/30 05:31:29;;;;;;;1.67;1.00;;;;;;;;;;5012943;28;20443;-66
2021/12/30 05:33:55;;;;;;;1.50;0.90;;;;;;;;;;5012876;28;20962;-65
2021/12/30 05:36:22;;;;;;;2.10;1.00;;;;;;;;;;5013468;28;20399;-66
2021/12/30 05:38:48;;;;;;;1.73;1.10;;;;;;;;;;5012903;28;20461;-66
2021/12/30 05:41:14;;;;;;;1.50;1.10;;;;;;;;;;5013149;28;20426;-66
2021/12/30 05:43:40;;;;;;;1.80;1.10;;;;;;;;;;5012855;28;20423;-66
2021/12/30 05:46:06;;;;;;;2.03;1.20;;;;;;;;;;5012879;28;20395;-66
2021/12/30 05:48:32;;;;;;;1.57;0.90;;;;;;;;;;5012989;28;20399;-66
2021/12/30 05:51:02;;;;;;;1.40;0.90;;;;;;;;;;5012939;28;20395;-66
2021/12/30 05:53:31;;;;;;;2.87;1.00;;;;;;;;;;5012928;28;20412;-66
2021/12/30 05:55:57;;;;;;;1.87;0.80;;;;;;;;;;5012816;28;20458;-66
2021/12/30 05:58:23;;;;;;;1.60;0.83;;;;;;;;;;5014637;28;20427;-66
2021/12/30 06:00:50;;;;;;;1.40;0.80;;;;;;;;;;5016466;28;20449;-66
2021/12/30 06:03:19;;;;;;;2.03;1.30;;;;;;;;;;5016057;28;20502;-66
2021/12/30 06:05:50;;;;;;;1.87;0.90;;;;;;;;;;5016435;28;20911;-66
2021/12/30 06:08:16;;;;;;;1.87;1.10;;;;;;;;;;5016276;28;20868;-65
2021/12/30 06:10:43;;;;;;;1.57;1.00;;;;;;;;;;5016185;28;20410;-66
2021/12/30 06:13:09;;;;;;;2.37;1.07;;;;;;;;;;5015835;28;20455;-66
2021/12/30 06:15:35;;;;;;;1.80;1.00;;;;;;;;;;5016144;28;20462;-66
2021/12/30 06:18:01;;;;;;;1.40;0.90;;;;;;;;;;5015887;28;20403;-66
2021/12/30 06:20:29;;;;;;;1.63;1.00;;;;;;;;;;5016143;28;20407;-65
2021/12/30 06:22:55;;;;;;;1.43;0.90;;;;;;;;;;5016150;28;20459;-66
2021/12/30 06:25:22;;;;;;;1.63;0.93;;;;;;;;;;5015814;28;20847;-66
2021/12/30 06:27:48;;;;;;;1.23;0.80;;;;;;;;;;5015595;28;20570;-67
2021/12/30 06:30:14;;;;;;;1.80;0.80;;;;;;;;;;5015971;28;20395;-66
2021/12/30 06:32:40;;;;;;;3.20;2.37;;;;;;;;;;5015532;28;21032;-66
2021/12/30 06:35:09;;;;;;;1.50;0.90;;;;;;;;;;5015595;28;20435;-66
2021/12/30 06:37:36;;;;;;;1.40;0.90;;;;;;;;;;5015844;28;20414;-65
2021/12/30 06:40:04;;;;;;;1.83;0.90;;;;;;;;;;5015487;28;20506;-65
2021/12/30 06:42:30;;;;;;;2.07;1.00;;;;;;;;;;5015679;28;20787;-65
2021/12/30 06:44:56;;;;;;;1.40;0.97;;;;;;;;;;5015437;28;20814;-65
2021/12/30 06:47:23;;;;;;;1.60;0.93;;;;;;;;;;5015293;28;20403;-66
2021/12/30 06:49:49;;;;;;;2.33;1.03;;;;;;;;;;5015607;28;20478;-65
2021/12/30 06:52:16;;;;;;;1.40;1.00;;;;;;;;;;5015310;28;20458;-66
2021/12/30 06:54:42;;;;;;;1.50;0.90;;;;;;;;;;5019057;28;20463;-66
2021/12/30 06:57:11;;;;;;;2.23;1.10;;;;;;;;;;5015146;28;20435;-66
2021/12/30 06:59:37;;;;;;;1.70;1.03;;;;;;;;;;5015246;28;20897;-66
2021/12/30 07:02:04;;;;;;;2.90;1.00;;;;;;;;;;5015164;28;20404;-66
2021/12/30 07:04:31;;;;;;;1.80;1.00;;;;;;;;;;5015196;28;20489;-66
2021/12/30 07:06:57;;;;;;;1.40;0.90;;;;;;;;;;5015534;28;20498;-66
2021/12/30 07:09:23;;;;;;;1.60;1.00;;;;;;;;;;5014956;28;20404;-66
2021/12/30 07:11:49;;;;;;;1.33;0.97;;;;;;;;;;5014958;28;20505;-66
2021/12/30 07:14:19;;;;;;;1.30;0.87;;;;;;;;;;5015271;28;20395;-65
2021/12/30 07:16:46;;;;;;;3.53;0.90;;;;;;;;;;5015115;28;20400;-65
2021/12/30 07:19:12;;;;;;;1.37;0.87;;;;;;;;;;5015102;28;20530;-66
2021/12/30 07:21:38;;;;;;;1.40;0.87;;;;;;;;;;5014913;28;20403;-65
2021/12/30 07:24:04;;;;;;;7.30;1.50;;;;;;;;;;5013495;28;20447;-65
2021/12/30 07:26:30;;;;;;;1.30;0.80;;;;;;;;;;5014750;28;20483;-65
2021/12/30 07:28:56;;;;;;;1.63;0.90;;;;;;;;;;5014652;28;20796;-65
2021/12/30 07:31:23;;;;;;;1.67;0.90;;;;;;;;;;5014518;28;20967;-64
2021/12/30 07:33:49;;;;;;;1.20;0.70;;;;;;;;;;5014540;28;20517;-64
2021/12/30 07:36:15;;;;;;;1.50;1.00;;;;;;;;;;5014740;28;20402;-64
2021/12/30 07:38:41;;;;;;;2.33;1.17;;;;;;;;;;5014644;28;20396;-64
2021/12/30 07:41:07;;;;;;;1.37;0.80;;;;;;;;;;5013375;28;20752;-66
2021/12/30 07:43:33;;;;;;;1.43;0.90;;;;;;;;;;5014437;28;20423;-66
2021/12/30 07:46:01;;;;;;;2.63;1.00;;;;;;;;;;5014613;28;20482;-66
2021/12/30 07:48:27;;;;;;;1.60;0.80;;;;;;;;;;5014800;28;20400;-64
2021/12/30 07:50:53;;;;;;;1.63;0.90;;;;;;;;;;5014354;28;20438;-64
2021/12/30 07:53:20;;;;;;;1.30;1.00;;;;;;;;;;5014127;28;20970;-67
2021/12/30 07:55:46;;;;;;;1.80;1.20;;;;;;;;;;5017661;28;20494;-66
2021/12/30 07:58:12;;;;;;;1.90;0.80;;;;;;;;;;5017605;28;20407;-65
2021/12/30 08:00:38;;;;;;;1.40;0.90;;;;;;;;;;5017352;28;20495;-66
2021/12/30 08:03:04;;;;;;;2.27;1.10;;;;;;;;;;5017530;28;20785;-65
2021/12/30 08:05:30;;;;;;;2.73;0.80;;;;;;;;;;5017288;28;20446;-65
2021/12/30 08:07:57;;;;;;;1.40;0.90;;;;;;;;;;5017478;28;20761;-65
2021/12/30 08:10:24;;;;;;;1.40;0.87;;;;;;;;;;5017654;28;20490;-65
2021/12/30 08:12:52;;;;;;;1.40;0.80;;;;;;;;;;5017117;28;20870;-65
2021/12/30 08:15:19;;;;;;;2.03;1.00;;;;;;;;;;5017509;28;20422;-65
2021/12/30 08:17:45;;;;;;;1.30;0.90;;;;;;;;;;5017814;28;20422;-66
2021/12/30 08:20:12;;;;;;;1.53;0.80;;;;;;;;;;5016929;28;20885;-66
2021/12/30 08:22:38;;;;;;;1.83;1.00;;;;;;;;;;5017170;28;20940;-65
2021/12/30 08:25:06;;;;;;;2.33;0.90;;;;;;;;;;5017951;28;20501;-65
2021/12/30 08:27:32;;;;;;;1.50;0.80;;;;;;;;;;5018122;28;20490;-66
2021/12/30 08:29:58;;;;;;;1.40;0.90;;;;;;;;;;5017707;28;20458;-66
2021/12/30 08:32:24;;;;;;;1.30;0.70;;;;;;;;;;5017208;28;20964;-66
2021/12/30 08:34:50;;;;;;;1.40;0.80;;;;;;;;;;5017873;28;20422;-66
2021/12/30 08:37:16;;;;;;;1.70;0.80;;;;;;;;;;5017944;28;20778;-65
2021/12/30 08:39:43;;;;;;;1.33;0.90;;;;;;;;;;5017486;28;20399;-65
2021/12/30 08:42:19;;;;;;;1.83;0.80;;;;;;;;;;5016891;28;20815;-66
2021/12/30 08:44:46;;;;;;;1.60;0.90;;;;;;;;;;5017508;28;20395;-66
2021/12/30 08:47:12;;;;;;;1.83;1.30;;;;;;;;;;5017687;28;20415;-65
2021/12/30 08:49:41;;;;;;;2.03;0.97;;;;;;;;;;5017423;28;20407;-66
2021/12/30 08:52:08;;;;;;;1.57;0.97;;;;;;;;;;5017045;28;20798;-66
2021/12/30 08:54:35;;;;;;;2.90;0.97;;;;;;;;;;5017415;28;20391;-65
2021/12/30 08:57:01;;;;;;;1.33;0.70;;;;;;;;;;5017753;28;20499;-66
2021/12/30 08:59:27;;;;;;;1.50;0.80;;;;;;;;;;5017944;28;20411;-65
2021/12/30 09:01:54;;;;;;;1.53;0.77;;;;;;;;;;5017780;28;20403;-65
2021/12/30 09:04:20;;;;;;;1.30;0.87;;;;;;;;;;5017790;28;20499;-65
2021/12/30 09:06:46;;;;;;;1.20;0.80;;;;;;;;;;5017570;28;20419;-65
2021/12/30 09:09:12;;;;;;;1.30;0.70;;;;;;;;;;5017111;28;21062;-65
2021/12/30 09:11:38;;;;;;;2.33;0.80;;;;;;;;;;5017282;28;20986;-65
2021/12/30 09:14:04;;;;;;;1.20;0.70;;;;;;;;;;5016778;28;20419;-65
2021/12/30 09:16:30;;;;;;;3.40;1.10;;;;;;;;;;5017023;28;20414;-65
2021/12/30 09:18:57;;;;;;;1.30;0.70;;;;;;;;;;5017165;28;20439;-65
2021/12/30 09:21:23;;;;;;;1.30;0.70;;;;;;;;;;5016881;28;20411;-65
2021/12/30 09:23:49;;;;;;;2.50;0.80;;;;;;;;;;5016589;28;20924;-65
2021/12/30 09:26:15;;;;;;;1.57;0.90;;;;;;;;;;5016192;28;20399;-66
2021/12/30 09:28:41;;;;;;;2.17;0.80;;;;;;;;;;5016589;28;20525;-65
2021/12/30 09:31:07;;;;;;;1.27;0.80;;;;;;;;;;5016926;28;20495;-66
2021/12/30 09:33:33;;;;;;;1.40;0.80;;;;;;;;;;5018790;28;20412;-65
2021/12/30 09:36:02;;;;;;;1.27;0.80;;;;;;;;;;5020533;28;20404;-65
2021/12/30 09:38:28;;;;;;;1.60;0.90;;;;;;;;;;5035599;28;20414;-65
2021/12/30 09:40:55;;;;;;;1.50;0.90;;;;;;;;;;5038662;28;20437;-65
2021/12/30 09:43:21;;;;;;;1.83;1.30;;;;;;;;;;5039510;28;20517;-65
2021/12/30 09:45:47;;;;;;;1.60;0.80;;;;;;;;;;5038826;28;20415;-65
2021/12/30 09:48:14;;;;;;;1.40;0.80;;;;;;;;;;5039345;28;20425;-65
2021/12/30 09:50:42;;;;;;;1.40;0.97;;;;;;;;;;5037930;28;20426;-65
2021/12/30 09:53:08;;;;;;;1.40;0.90;;;;;;;;;;5036550;28;20557;-64
2021/12/30 09:55:35;;;;;;;1.30;0.90;;;;;;;;;;5036768;28;20410;-64
2021/12/30 09:58:01;;;;;;;1.30;0.90;;;;;;;;;;5037770;28;20921;-64
2021/12/30 10:00:28;;;;;;;1.53;1.03;;;;;;;;;;5038978;28;20402;-65
2021/12/30 10:02:54;;;;;;;1.43;0.73;;;;;;;;;;5039622;28;20452;-65
2021/12/30 10:05:21;;;;;;;1.60;1.00;;;;;;;;;;5038442;28;20422;-64
2021/12/30 10:07:48;;;;;;;4.13;0.97;;;;;;;;;;5038375;28;20422;-64
2021/12/30 10:10:26;;;;;;;1.40;0.90;;;;;;;;;;5037230;28;20780;-65
2021/12/30 10:12:52;;;;;;;1.50;0.80;;;;;;;;;;5037094;28;20988;-65
2021/12/30 10:15:20;;;;;;;2.00;1.00;;;;;;;;;;5037748;28;20850;-65
2021/12/30 10:17:54;;;;;;;1.70;1.30;;;;;;;;;;5038938;28;20954;-68
2021/12/30 10:20:24;;;;;;;1.50;1.00;;;;;;;;;;5038784;28;20477;-67
2021/12/30 10:22:51;;;;;;;2.40;0.93;;;;;;;;;;5035674;28;20780;-67
2021/12/30 10:25:34;;;;;;;1.57;1.10;;;;;;;;;;5035859;28;20418;-66
2021/12/30 10:28:18;;;;;;;1.30;0.70;;;;;;;;;;5035728;28;20434;-64
2021/12/30 10:30:45;;;;;;;1.60;0.90;;;;;;;;;;5035654;28;20747;-64
2021/12/30 10:33:15;;;;;;;1.70;0.90;;;;;;;;;;5035227;28;20464;-66
2021/12/30 10:35:41;;;;;;;1.60;0.80;;;;;;;;;;5035224;28;20422;-63
2021/12/30 10:38:11;;;;;;;1.60;1.10;;;;;;;;;;5035708;28;20406;-64
2021/12/30 10:40:39;;;;;;;1.40;1.00;;;;;;;;;;5035668;28;20748;-63
2021/12/30 10:43:20;;;;;;;4.60;1.00;;;;;;;;;;5046897;28;20436;-63
2021/12/30 10:46:01;;;;;;;1.53;1.00;;;;;;;;;;5015728;28;20407;-64
2021/12/30 10:48:27;;;;;;;1.30;0.70;;;;;;;;;;5016177;28;20435;-72
2021/12/30 10:51:08;;;;;;;1.40;0.80;;;;;;;;;;5034240;28;20418;-62
2021/12/30 10:53:36;;;;;;;1.53;1.07;;;;;;;;;;5036226;28;20509;-65
2021/12/30 10:56:20;;;;;;;1.67;0.90;;;;;;;;;;5035540;28;20895;-65
2021/12/30 10:58:46;;;;;;;1.20;0.70;;;;;;;;;;5035284;28;20399;-65
2021/12/30 11:01:17;;;;;;;2.03;1.00;;;;;;;;;;5035446;28;20413;-63
2021/12/30 11:03:54;;;;;;;1.70;0.80;;;;;;;;;;5037612;28;20498;-66
2021/12/30 11:06:20;;;;;;;1.50;0.60;;;;;;;;;;5035219;28;20405;-64
2021/12/30 11:08:47;;;;;;;2.40;0.80;;;;;;;;;;5035217;28;20164;-64
2021/12/30 11:11:26;;;;;;;1.40;0.70;;;;;;;;;;5034875;28;20409;-65
2021/12/30 11:13:58;;;;;;;1.60;0.85;;;;;;;;;;5033787;28;20471;-65
2021/12/30 11:16:24;;;;;;;1.40;0.90;;;;;;;;;;5034644;28;20206;-70
2021/12/30 11:18:50;;;;;;;1.30;0.80;;;;;;;;;;5034556;28;20419;-65
2021/12/30 11:21:36;;;;;;;1.40;0.80;;;;;;;;;;5035030;28;20486;-67
2021/12/30 11:24:03;;;;;;;1.83;0.90;;;;;;;;;;5035791;28;20416;-68
2021/12/30 11:26:29;;;;;;;1.60;1.23;;;;;;;;;;5035637;28;20403;-70
2021/12/30 11:28:56;;;;;;;1.50;0.80;;;;;;;;;;5035287;28;20435;-67
2021/12/30 11:31:22;;;;;;;1.50;1.00;;;;;;;;;;5034836;28;20415;-67
2021/12/30 11:33:49;;;;;;;1.40;0.73;;;;;;;;;;5036432;28;20430;-67
2021/12/30 11:36:17;;;;;;;2.43;0.87;;;;;;;;;;5036371;28;20785;-67
2021/12/30 11:38:43;;;;;;;1.60;0.93;;;;;;;;;;5035777;28;20965;-67
2021/12/30 11:41:16;;;;;;;1.90;1.00;;;;;;;;;;5034414;28;20399;-66
2021/12/30 11:43:42;;;;;;;1.60;0.97;;;;;;;;;;5034037;28;20438;-65
2021/12/30 11:46:28;;;;;;;2.70;0.83;;;;;;;;;;5034683;28;20410;-65
2021/12/30 11:48:58;;;;;;;1.77;0.80;;;;;;;;;;5032640;28;20453;-65
2021/12/30 11:51:40;;;;;;;1.83;0.70;;;;;;;;;;5034720;28;20441;-67
2021/12/30 11:54:24;;;;;;;1.57;1.03;;;;;;;;;;5033721;28;20866;-67
2021/12/30 11:57:10;;;;;;;1.70;1.00;;;;;;;;;;5033640;28;20402;-67
2021/12/30 11:59:39;;;;;;;2.87;1.60;;;;;;;;;;5033907;28;20413;-67
2021/12/30 12:02:25;;;;;;;1.43;0.90;;;;;;;;;;5034127;28;20421;-68
2021/12/30 12:04:51;;;;;;;2.03;1.23;;;;;;;;;;5034099;28;20410;-67
2021/12/30 12:07:17;;;;;;;1.90;1.30;;;;;;;;;;5033996;28;20406;-66
2021/12/30 12:09:43;;;;;;;2.40;0.87;;;;;;;;;;5033755;28;20414;-66
2021/12/30 12:12:27;;;;;;;1.30;0.80;;;;;;;;;;5034170;28;21014;-68
2021/12/30 12:14:53;;;;;;;1.30;0.80;;;;;;;;;;5033888;28;20494;-68
2021/12/30 12:17:30;;;;;;;1.50;0.70;;;;;;;;;;5033976;28;20457;-68
2021/12/30 12:19:57;;;;;;;1.20;0.70;;;;;;;;;;5033724;28;20414;-68
2021/12/30 12:22:25;;;;;;;2.80;0.90;;;;;;;;;;5033888;28;20962;-68
2021/12/30 12:25:10;;;;;;;2.63;1.00;;;;;;;;;;5033383;28;20544;-68
2021/12/30 12:27:45;;;;;;;1.70;1.20;;;;;;;;;;5013636;28;20431;-68
2021/12/30 12:30:23;;;;;;;2.33;1.20;;;;;;;;;;5023814;28;20459;-68
2021/12/30 12:32:49;;;;;;;1.57;0.87;;;;;;;;;;5032546;28;21046;-68
2021/12/30 12:35:18;;;;;;;1.33;0.77;;;;;;;;;;5033618;28;20460;-68
2021/12/30 12:37:47;;;;;;;1.53;0.77;;;;;;;;;;5033714;28;20410;-70
2021/12/30 12:40:21;;;;;;;1.70;0.90;;;;;;;;;;5033115;28;20934;-66
2021/12/30 12:42:53;;;;;;;1.50;0.90;;;;;;;;;;5032631;28;20886;-65
2021/12/30 12:45:19;;;;;;;2.13;0.90;;;;;;;;;;5033139;28;20426;-65
2021/12/30 12:47:46;;;;;;;1.53;0.90;;;;;;;;;;5033370;28;20406;-67
2021/12/30 12:50:13;;;;;;;2.00;1.00;;;;;;;;;;5032574;28;20971;-66
2021/12/30 12:52:42;;;;;;;1.50;0.90;;;;;;;;;;5033086;28;20457;-65
2021/12/30 12:55:12;;;;;;;2.67;1.07;;;;;;;;;;5032537;28;20505;-67
2021/12/30 12:57:41;;;;;;;1.47;0.90;;;;;;;;;;5032204;28;20501;-65
2021/12/30 13:00:07;;;;;;;2.00;1.00;;;;;;;;;;5032845;28;20473;-65
2021/12/30 13:02:33;;;;;;;1.50;0.87;;;;;;;;;;5033241;28;20206;-65
2021/12/30 13:05:07;;;;;;;1.50;0.87;;;;;;;;;;5032937;28;20460;-68
2021/12/30 13:07:34;;;;;;;1.40;0.80;;;;;;;;;;5035514;28;20429;-68
2021/12/30 13:10:00;;;;;;;1.30;0.80;;;;;;;;;;5037119;28;20421;-69
2021/12/30 13:12:26;;;;;;;1.50;0.80;;;;;;;;;;5035510;28;20457;-64
2021/12/30 13:14:52;;;;;;;1.87;0.77;;;;;;;;;;5036919;28;20469;-67
2021/12/30 13:17:18;;;;;;;1.52;0.70;;;;;;;;;;5036631;28;20429;-66
2021/12/30 13:19:48;;;;;;;1.70;0.90;;;;;;;;;;5037062;28;20222;-67
2021/12/30 13:22:18;;;;;;;1.40;0.73;;;;;;;;;;5036641;28;20827;-65
2021/12/30 13:24:50;;;;;;;1.30;0.80;;;;;;;;;;5036764;28;20221;-65
2021/12/30 13:27:16;;;;;;;1.67;0.90;;;;;;;;;;5035960;28;20488;-66
2021/12/30 13:29:46;;;;;;;1.50;0.90;;;;;;;;;;5036373;28;20458;-67
2021/12/30 13:32:15;;;;;;;1.53;0.90;;;;;;;;;;5036910;28;20290;-67
2021/12/30 13:35:02;;;;;;;1.50;0.93;;;;;;;;;;5036470;28;20413;-65
2021/12/30 13:37:29;;;;;;;1.60;0.90;;;;;;;;;;5037910;28;20805;-65
2021/12/30 13:39:56;;;;;;;1.50;0.83;;;;;;;;;;5037512;28;20527;-65
2021/12/30 13:42:27;;;;;;;1.50;0.90;;;;;;;;;;5037198;28;20418;-65
2021/12/30 13:44:55;;;;;;;1.40;0.80;;;;;;;;;;5037229;28;20872;-65
2021/12/30 13:47:27;;;;;;;1.33;0.80;;;;;;;;;;5036926;28;20394;-65
2021/12/30 13:49:55;;;;;;;1.50;0.87;;;;;;;;;;5036727;28;20516;-65
2021/12/30 13:52:22;;;;;;;2.00;0.90;;;;;;;;;;5036660;28;20814;-65
2021/12/30 13:55:07;;;;;;;2.30;1.00;;;;;;;;;;5036756;28;20395;-65
2021/12/30 13:57:33;;;;;;;1.30;0.77;;;;;;;;;;5036364;28;20391;-65
2021/12/30 14:00:00;;;;;;;1.70;1.00;;;;;;;;;;5036357;28;20398;-65
2021/12/30 14:02:26;;;;;;;1.73;0.93;;;;;;;;;;5036169;28;20418;-65
2021/12/30 14:05:02;;;;;;;1.53;0.87;;;;;;;;;;5036254;28;20493;-65
2021/12/30 14:07:32;;;;;;;1.47;0.93;;;;;;;;;;5036669;28;20390;-65
2021/12/30 14:09:59;;;;;;;1.40;1.00;;;;;;;;;;5036128;28;20390;-65
2021/12/30 14:12:25;;;;;;;1.50;0.87;;;;;;;;;;5036157;28;20480;-65
2021/12/30 14:14:51;;;;;;;1.50;0.90;;;;;;;;;;5036060;28;20406;-65
2021/12/30 14:17:18;;;;;;;2.23;0.90;;;;;;;;;;5035748;28;20398;-65
2021/12/30 14:19:49;;;;;;;1.47;0.87;;;;;;;;;;5035032;28;20398;-65
2021/12/30 14:22:16;;;;;;;1.50;1.00;;;;;;;;;;5035928;28;20426;-65
2021/12/30 14:24:42;;;;;;;1.60;1.00;;;;;;;;;;5036072;28;20399;-65
2021/12/30 14:27:13;;;;;;;1.80;1.03;;;;;;;;;;5035893;28;20398;-65
2021/12/30 14:29:39;;;;;;;1.60;0.90;;;;;;;;;;5035816;28;20414;-65
2021/12/30 14:32:07;;;;;;;2.47;1.00;;;;;;;;;;5036512;28;20446;-65
2021/12/30 14:34:34;;;;;;;1.40;0.70;;;;;;;;;;5036071;28;20410;-65
2021/12/30 14:37:12;;;;;;;1.50;0.87;;;;;;;;;;5035545;28;20419;-65
2021/12/30 14:39:42;;;;;;;1.40;0.90;;;;;;;;;;5035557;28;20413;-65
2021/12/30 14:42:08;;;;;;;1.37;0.80;;;;;;;;;;5035656;28;20835;-65
2021/12/30 14:44:35;;;;;;;1.33;0.70;;;;;;;;;;5035496;28;20403;-65
2021/12/30 14:47:14;;;;;;;2.43;1.00;;;;;;;;;;5034071;28;20418;-65
2021/12/30 14:49:52;;;;;;;1.20;0.70;;;;;;;;;;5035620;28;20393;-65